Terminal Aerodrome Forecast
Issued by NWS Memphis, TN

Home | Current Version | Previous Version | Text Only | Print | Product List | Glossary On
Versions: 1 2 3 4 5 6 7 8 9 10 11 12 13 14 15 16 17 18
000
FTUS44 KMEG 251736
TAFJBR
TAF
KJBR 251736Z 2518/2618 20011G18KT P6SM VCTS SCT040CB BKN150
      TEMPO 2519/2521 VRB15G30KT 5SM TSRA BKN040CB
     FM252300 19008KT P6SM SCT040 BKN250
     FM261300 20007KT P6SM VCTS SCT025CB BKN050=

USA.gov is the U.S. government's official web portal to all federal, state and local government web resources and services.